Time;durP1;ratioP1;P1;durP2;ratioP2;P2;SDS_P1;SDS_P2;PMS_P1;PMS_P2;Temp;Humidity;BMP_temperature;BMP_pressure;BME280_temperature;BME280_humidity;BME280_pressure;Samples;Min_cycle;Max_cycle;Signal;HPM_P1;HPM_P2
2022/07/18 00:00:49;;;;;;;4.20;3.58;;;;;;;15.94;81.81;102371.31;5030717;28;20043;-60
2022/07/18 00:03:16;;;;;;;4.65;4.00;;;;;;;15.94;81.40;102374.84;5026745;28;20030;-61
2022/07/18 00:05:41;;;;;;;5.50;3.63;;;;;;;15.94;82.20;102373.94;5030672;28;20034;-60
2022/07/18 00:08:07;;;;;;;4.88;3.33;;;;;;;15.93;82.10;102366.94;5027172;28;20029;-61
2022/07/18 00:10:33;;;;;;;4.57;3.70;;;;;;;15.92;81.64;102373.03;5029724;28;20027;-60
2022/07/18 00:12:58;;;;;;;8.35;4.03;;;;;;;15.90;81.52;102372.06;5028261;28;20029;-60
2022/07/18 00:15:24;;;;;;;7.95;3.78;;;;;;;15.87;81.74;102369.34;5030458;28;20075;-60
2022/07/18 00:17:49;;;;;;;4.53;3.95;;;;;;;15.84;81.99;102363.19;5027695;28;20450;-60
2022/07/18 00:20:14;;;;;;;6.28;4.05;;;;;;;15.78;82.02;102362.06;5027883;28;20072;-60
2022/07/18 00:22:40;;;;;;;6.43;3.88;;;;;;;15.76;82.11;102355.94;5029323;28;20390;-61
2022/07/18 00:25:06;;;;;;;5.45;4.13;;;;;;;15.72;82.16;102352.31;5027133;28;20855;-61
2022/07/18 00:27:31;;;;;;;5.07;4.15;;;;;;;15.69;82.32;102353.09;5030470;28;20072;-61
2022/07/18 00:29:57;;;;;;;6.22;4.28;;;;;;;15.64;82.14;102349.44;5028266;28;20022;-61
2022/07/18 00:32:22;;;;;;;5.13;3.92;;;;;;;15.60;82.82;102353.66;5026097;28;20030;-61
2022/07/18 00:34:48;;;;;;;4.55;4.15;;;;;;;15.57;83.47;102350.94;5025284;28;20043;-60
2022/07/18 00:37:13;;;;;;;11.85;4.95;;;;;;;15.53;83.78;102343.81;5027284;28;20504;-60
2022/07/18 00:39:38;;;;;;;5.72;3.63;;;;;;;15.47;83.95;102346.22;5029731;28;20124;-61
2022/07/18 00:42:04;;;;;;;4.80;3.97;;;;;;;15.44;84.40;102341.78;5028596;28;20045;-60
2022/07/18 00:44:29;;;;;;;7.85;4.30;;;;;;;15.44;84.35;102335.66;5024706;28;20037;-61
2022/07/18 00:46:58;;;;;;;4.20;3.80;;;;;;;15.38;84.74;102341.53;5029508;28;20485;-60
2022/07/18 00:49:24;;;;;;;6.10;3.90;;;;;;;15.34;85.39;102340.53;5027966;28;20065;-60
2022/07/18 00:51:49;;;;;;;5.30;4.13;;;;;;;15.33;85.21;102337.88;5025536;28;20036;-60
2022/07/18 00:54:16;;;;;;;4.30;3.90;;;;;;;15.32;85.33;102326.56;5025644;28;20053;-59
2022/07/18 00:56:41;;;;;;;6.63;4.20;;;;;;;15.30;86.06;102338.66;5026234;28;20024;-60
2022/07/18 00:59:07;;;;;;;5.43;3.55;;;;;;;15.28;85.82;102335.09;5027641;28;20116;-60
2022/07/18 01:01:47;;;;;;;7.28;3.78;;;;;;;15.26;86.39;102336.78;5026483;28;20017;-60
2022/07/18 01:04:21;;;;;;;8.38;3.95;;;;;;;15.20;86.81;102331.34;5028233;28;20017;-60
2022/07/18 01:06:48;;;;;;;4.90;3.83;;;;;;;15.16;87.18;102329.44;5025903;28;20033;-60
2022/07/18 01:09:15;;;;;;;8.77;4.38;;;;;;;15.11;87.58;102332.75;5028199;28;20033;-60
2022/07/18 01:11:41;;;;;;;5.28;3.63;;;;;;;15.12;87.06;102325.81;5024189;28;20032;-60
2022/07/18 01:14:06;;;;;;;4.32;3.90;;;;;;;15.12;87.38;102318.91;5024520;28;20037;-61
2022/07/18 01:16:33;;;;;;;5.60;4.15;;;;;;;15.13;87.46;102318.03;5022983;28;20025;-60
2022/07/18 01:18:58;;;;;;;5.90;3.80;;;;;;;15.13;88.14;102310.22;5023261;28;20435;-60
2022/07/18 01:21:24;;;;;;;6.50;3.65;;;;;;;15.11;87.62;102313.63;5025998;28;20421;-60
2022/07/18 01:23:49;;;;;;;10.27;3.70;;;;;;;15.10;88.33;102317.94;5024706;28;20568;-60
2022/07/18 01:26:16;;;;;;;5.35;4.18;;;;;;;15.06;88.98;102322.97;5023504;28;20478;-60
2022/07/18 01:28:42;;;;;;;5.18;3.85;;;;;;;15.03;88.78;102317.66;5026234;28;20028;-60
2022/07/18 01:31:08;;;;;;;4.05;3.58;;;;;;;14.97;89.07;102311.38;5024908;28;20029;-60
2022/07/18 01:33:34;;;;;;;4.55;3.65;;;;;;;14.95;88.92;102317.38;5027784;28;20476;-60
2022/07/18 01:36:00;;;;;;;4.90;3.88;;;;;;;14.88;89.26;102314.53;5023086;28;20033;-60
2022/07/18 01:38:28;;;;;;;7.32;4.50;;;;;;;14.86;89.36;102313.56;5023029;28;20033;-60
2022/07/18 01:40:53;;;;;;;4.35;3.78;;;;;;;14.84;90.37;102312.63;5024590;28;20081;-61
2022/07/18 01:43:18;;;;;;;6.28;4.10;;;;;;;14.78;90.80;102307.16;5024381;28;20031;-61
2022/07/18 01:45:44;;;;;;;7.25;3.75;;;;;;;14.77;90.40;102305.38;5026131;28;20029;-60
2022/07/18 01:48:09;;;;;;;7.50;4.00;;;;;;;14.74;90.96;102310.47;5024845;28;20036;-60
2022/07/18 01:50:34;;;;;;;5.03;3.78;;;;;;;14.73;90.85;102308.72;5027492;28;20021;-59
2022/07/18 01:52:59;;;;;;;4.18;3.72;;;;;;;14.70;90.37;102317.28;5025199;28;20022;-60
2022/07/18 01:55:25;;;;;;;6.20;4.15;;;;;;;14.67;90.46;102313.69;5025729;28;20473;-60
2022/07/18 01:57:50;;;;;;;4.63;3.58;;;;;;;14.65;90.31;102309.31;5023701;28;20108;-60
2022/07/18 02:00:15;;;;;;;4.53;4.03;;;;;;;14.60;90.45;102303.03;5022649;28;20052;-60
2022/07/18 02:02:41;;;;;;;5.25;3.88;;;;;;;14.59;90.32;102306.44;5025665;28;20452;-60
2022/07/18 02:05:07;;;;;;;5.28;4.25;;;;;;;14.56;90.11;102311.53;5026938;28;20017;-59
2022/07/18 02:07:37;;;;;;;5.68;5.07;;;;;;;14.49;90.33;102305.22;5028114;28;20029;-60
2022/07/18 02:10:14;;;;;;;5.32;4.28;;;;;;;14.45;90.41;102303.31;5022244;28;20053;-60
2022/07/18 02:12:40;;;;;;;6.07;4.63;;;;;;;14.41;90.36;102304.00;5023422;28;20029;-59
2022/07/18 02:15:08;;;;;;;5.57;4.63;;;;;;;14.37;90.89;102300.38;5022467;28;20099;-59
2022/07/18 02:17:34;;;;;;;5.93;4.32;;;;;;;14.40;91.04;102292.69;5022555;28;20025;-61
2022/07/18 02:19:59;;;;;;;5.15;4.30;;;;;;;14.42;90.21;102287.53;5025224;28;20024;-60
2022/07/18 02:22:25;;;;;;;7.13;4.68;;;;;;;14.40;90.01;102289.19;5024264;28;20018;-60
2022/07/18 02:24:52;;;;;;;5.90;4.53;;;;;;;14.37;90.63;102282.13;5018985;28;20037;-60
2022/07/18 02:27:17;;;;;;;6.75;4.68;;;;;;;14.40;90.58;102284.88;5024627;28;20076;-61
2022/07/18 02:29:43;;;;;;;5.63;4.70;;;;;;;14.39;90.94;102267.44;5026160;28;20025;-60
2022/07/18 02:32:08;;;;;;;6.50;5.38;;;;;;;14.38;91.26;102278.72;5023185;28;20469;-61
2022/07/18 02:34:34;;;;;;;7.80;4.60;;;;;;;14.37;91.16;102279.53;5022331;28;20017;-61
2022/07/18 02:36:59;;;;;;;5.90;4.60;;;;;;;14.30;92.27;102274.91;5024306;28;20022;-61
2022/07/18 02:39:25;;;;;;;5.78;4.32;;;;;;;14.27;92.59;102287.81;5020342;28;20495;-61
2022/07/18 02:41:50;;;;;;;8.15;4.60;;;;;;;14.22;92.69;102276.31;5025124;28;20250;-61
2022/07/18 02:44:16;;;;;;;4.47;4.03;;;;;;;14.16;93.96;102285.66;5024445;28;20014;-61
2022/07/18 02:46:41;;;;;;;6.25;4.40;;;;;;;14.14;93.93;102279.50;5023175;28;20494;-61
2022/07/18 02:49:06;;;;;;;5.05;4.13;;;;;;;14.11;94.09;102275.88;5025758;28;20049;-61
2022/07/18 02:51:32;;;;;;;5.72;4.22;;;;;;;14.09;94.18;102272.31;5024209;28;20025;-61
2022/07/18 02:53:57;;;;;;;9.00;4.38;;;;;;;14.03;93.91;102275.59;5024796;28;20180;-60
2022/07/18 02:56:22;;;;;;;6.32;4.20;;;;;;;13.99;93.93;102278.88;5017018;28;20091;-61
2022/07/18 02:58:48;;;;;;;5.57;4.97;;;;;;;13.96;94.35;102281.38;5024581;28;20041;-61
2022/07/18 03:01:13;;;;;;;5.10;4.28;;;;;;;13.95;95.08;102290.00;5023181;28;20017;-60
2022/07/18 03:03:39;;;;;;;5.88;4.00;;;;;;;13.92;94.87;102286.44;5022719;28;20032;-61
2022/07/18 03:06:04;;;;;;;5.65;3.83;;;;;;;13.91;94.98;102279.47;5022872;28;20036;-60
2022/07/18 03:08:30;;;;;;;6.78;4.53;;;;;;;13.90;94.97;102276.81;5024027;28;20013;-60
2022/07/18 03:10:55;;;;;;;5.85;4.57;;;;;;;13.92;94.13;102272.53;5021889;28;20473;-61
2022/07/18 03:13:20;;;;;;;5.03;4.60;;;;;;;13.90;94.54;102272.50;5024950;28;20029;-61
2022/07/18 03:15:45;;;;;;;5.50;4.20;;;;;;;13.89;94.05;102264.56;5023431;28;20477;-60
2022/07/18 03:18:11;;;;;;;7.38;4.80;;;;;;;13.83;94.26;102265.25;5026439;28;20025;-60
2022/07/18 03:20:36;;;;;;;8.45;5.30;;;;;;;13.72;94.48;102259.59;5024453;28;20029;-61
2022/07/18 03:23:05;;;;;;;6.18;4.90;;;;;;;13.66;95.10;102252.41;5025939;28;20025;-61
2022/07/18 03:25:31;;;;;;;5.85;4.65;;;;;;;13.68;95.25;102250.75;5023334;28;20021;-61
2022/07/18 03:27:57;;;;;;;7.70;5.15;;;;;;;13.69;94.80;102249.91;5025185;28;20092;-61
2022/07/18 03:30:22;;;;;;;5.97;5.30;;;;;;;13.68;95.04;102240.34;5024845;28;20108;-60
2022/07/18 03:32:48;;;;;;;5.40;4.90;;;;;;;13.69;95.13;102247.31;5028943;28;20069;-60
2022/07/18 03:35:13;;;;;;;5.75;4.80;;;;;;;13.69;95.37;102243.81;5025450;28;20053;-60
2022/07/18 03:37:38;;;;;;;5.82;4.70;;;;;;;13.68;95.11;102242.03;5022838;28;20048;-61
2022/07/18 03:40:04;;;;;;;6.32;4.75;;;;;;;13.67;94.98;102241.13;5026709;28;20071;-60
2022/07/18 03:42:30;;;;;;;7.00;5.10;;;;;;;13.67;94.98;102248.94;5022574;28;20033;-60
2022/07/18 03:44:55;;;;;;;7.20;4.93;;;;;;;13.64;95.68;102242.72;5027682;28;20036;-61
2022/07/18 03:47:20;;;;;;;5.32;4.78;;;;;;;13.64;96.04;102242.72;5026784;28;20022;-60
2022/07/18 03:49:46;;;;;;;8.90;5.00;;;;;;;13.63;95.73;102240.97;5026097;28;20029;-60
2022/07/18 03:52:11;;;;;;;8.63;4.53;;;;;;;13.60;95.62;102249.53;5025431;28;20024;-60
2022/07/18 03:54:36;;;;;;;5.70;4.25;;;;;;;13.59;95.75;102255.56;5026037;28;20018;-60
2022/07/18 03:57:02;;;;;;;5.18;4.68;;;;;;;13.60;96.16;102254.72;5029498;28;20031;-59
2022/07/18 03:59:27;;;;;;;5.70;4.93;;;;;;;13.59;96.00;102245.16;5023939;28;20030;-60
2022/07/18 04:01:53;;;;;;;5.55;4.70;;;;;;;13.60;96.12;102241.72;5025840;28;20029;-59
2022/07/18 04:04:18;;;;;;;7.70;5.05;;;;;;;13.60;96.35;102241.72;5023303;28;20136;-60
2022/07/18 04:06:43;;;;;;;7.50;4.85;;;;;;;13.57;96.85;102244.19;5028793;28;20025;-61
2022/07/18 04:09:08;;;;;;;6.13;4.65;;;;;;;13.55;96.48;102243.22;5026542;28;20021;-61
2022/07/18 04:11:34;;;;;;;5.40;4.90;;;;;;;13.56;96.29;102240.69;5024260;28;20021;-59
2022/07/18 04:13:59;;;;;;;8.00;5.10;;;;;;;13.55;96.94;102238.03;5027124;28;20030;-60
2022/07/18 04:16:24;;;;;;;5.47;4.68;;;;;;;13.60;95.90;102240.84;5024878;28;20104;-60
2022/07/18 04:18:50;;;;;;;8.32;5.18;;;;;;;13.62;95.84;102240.06;5025806;28;20018;-60
2022/07/18 04:21:16;;;;;;;6.82;4.82;;;;;;;13.63;96.18;102228.84;5027230;28;20025;-60
2022/07/18 04:23:42;;;;;;;9.68;5.45;;;;;;;13.63;95.26;102223.63;5024414;28;20475;-60
2022/07/18 04:26:07;;;;;;;6.72;4.93;;;;;;;13.66;94.83;102226.34;5025076;28;20025;-60
2022/07/18 04:28:33;;;;;;;6.57;5.00;;;;;;;13.69;94.97;102222.97;5028033;28;20027;-60
2022/07/18 04:30:58;;;;;;;8.15;5.72;;;;;;;13.72;94.32;102223.13;5028525;28;20113;-61
2022/07/18 04:33:24;;;;;;;6.90;5.18;;;;;;;13.74;94.80;102217.97;5029009;28;20362;-60
2022/07/18 04:35:49;;;;;;;7.25;5.50;;;;;;;13.77;94.26;102218.09;5025848;28;20444;-60
2022/07/18 04:38:15;;;;;;;8.30;5.43;;;;;;;13.80;94.40;102213.00;5025350;28;20538;-61
2022/07/18 04:40:40;;;;;;;6.20;5.03;;;;;;;13.85;94.46;102210.59;5025380;28;20044;-61
2022/07/18 04:43:06;;;;;;;6.60;5.07;;;;;;;13.91;94.27;102210.81;5025647;28;20029;-61
2022/07/18 04:45:32;;;;;;;7.47;5.60;;;;;;;13.92;94.72;102213.47;5027772;28;20024;-60
2022/07/18 04:47:58;;;;;;;6.93;5.60;;;;;;;13.97;93.70;102215.38;5027407;28;20428;-60
2022/07/18 04:50:24;;;;;;;6.30;5.10;;;;;;;14.04;93.87;102209.59;5025301;28;20025;-60
2022/07/18 04:52:50;;;;;;;6.72;5.25;;;;;;;14.08;93.72;102208.91;5026309;28;20014;-61
2022/07/18 04:55:17;;;;;;;7.25;5.18;;;;;;;14.12;93.73;102221.19;5026724;28;20025;-61
2022/07/18 04:57:43;;;;;;;6.63;5.50;;;;;;;14.19;93.15;102221.47;5025141;28;20009;-60
2022/07/18 05:00:14;;;;;;;8.55;5.90;;;;;;;14.24;93.23;102225.13;5026698;28;20067;-61
2022/07/18 05:02:44;;;;;;;9.07;6.05;;;;;;;14.31;92.52;102216.72;5023171;28;20101;-60
2022/07/18 05:05:11;;;;;;;8.43;6.00;;;;;;;14.37;92.85;102219.53;5027440;28;20663;-60
2022/07/18 05:07:37;;;;;;;7.53;5.57;;;;;;;14.42;91.96;102219.75;5028194;28;20032;-60
2022/07/18 05:10:07;;;;;;;9.27;5.38;;;;;;;14.49;91.55;102218.25;5023208;28;20084;-60
2022/07/18 05:12:32;;;;;;;6.18;5.57;;;;;;;14.54;91.06;102214.09;5024278;28;20017;-61
2022/07/18 05:14:58;;;;;;;8.10;5.82;;;;;;;14.59;91.14;102220.38;5025703;28;20458;-61
2022/07/18 05:17:23;;;;;;;7.50;5.35;;;;;;;14.66;91.22;102218.88;5026653;28;20093;-61
2022/07/18 05:19:48;;;;;;;8.63;6.28;;;;;;;14.73;90.79;102228.69;5022908;28;20473;-61
2022/07/18 05:22:13;;;;;;;9.52;5.95;;;;;;;14.84;90.46;102228.25;5022829;28;20022;-61
2022/07/18 05:24:39;;;;;;;6.20;5.60;;;;;;;14.92;90.39;102225.91;5024894;28;20083;-60
2022/07/18 05:27:04;;;;;;;8.25;5.60;;;;;;;15.03;89.07;102223.69;5025596;28;20025;-61
2022/07/18 05:29:29;;;;;;;5.50;4.80;;;;;;;15.12;88.19;102219.69;5027495;28;20056;-61
2022/07/18 05:31:55;;;;;;;6.18;5.15;;;;;;;15.25;86.10;102227.94;5025213;28;20022;-61
2022/07/18 05:34:21;;;;;;;5.93;5.35;;;;;;;15.36;85.99;102221.34;5024927;28;20112;-60
2022/07/18 05:36:46;;;;;;;6.25;5.53;;;;;;;15.46;84.99;102227.78;5025590;28;20033;-61
2022/07/18 05:39:11;;;;;;;7.05;5.47;;;;;;;15.55;84.93;102218.47;5023707;28;20044;-61
2022/07/18 05:41:37;;;;;;;9.63;6.18;;;;;;;15.63;83.58;102219.66;5024206;28;20041;-61
2022/07/18 05:44:02;;;;;;;7.72;5.40;;;;;;;15.73;81.08;102218.19;5023329;28;20029;-61
2022/07/18 05:46:28;;;;;;;9.43;6.00;;;;;;;15.87;80.53;102220.34;5027382;28;20017;-61
2022/07/18 05:48:54;;;;;;;6.43;5.82;;;;;;;15.97;80.81;102218.09;5027197;28;20075;-60
2022/07/18 05:51:19;;;;;;;6.93;5.22;;;;;;;16.13;81.07;102217.72;5027066;28;20025;-60
2022/07/18 05:53:44;;;;;;;6.13;5.43;;;;;;;16.26;79.36;102219.84;5024343;28;20412;-60
2022/07/18 05:56:10;;;;;;;7.88;5.30;;;;;;;16.41;79.53;102229.00;5022054;28;20053;-61
2022/07/18 05:58:35;;;;;;;6.60;5.22;;;;;;;16.54;78.86;102231.16;5025723;28;20021;-61
2022/07/18 06:01:01;;;;;;;7.55;5.50;;;;;;;16.67;77.65;102223.66;5024757;28;20025;-60
2022/07/18 06:03:26;;;;;;;8.05;5.50;;;;;;;16.80;76.57;102222.28;5026517;28;20079;-61
2022/07/18 06:05:51;;;;;;;6.45;5.60;;;;;;;16.95;75.64;102219.19;5026924;28;20053;-61
2022/07/18 06:08:17;;;;;;;5.85;4.82;;;;;;;17.09;75.57;102216.94;5020932;28;20048;-60
2022/07/18 06:10:42;;;;;;;6.93;4.65;;;;;;;17.23;74.13;102220.00;5023742;28;20072;-61
2022/07/18 06:13:07;;;;;;;7.32;4.50;;;;;;;17.39;73.12;102228.22;5024209;28;20474;-61
2022/07/18 06:15:33;;;;;;;7.10;5.45;;;;;;;17.52;72.46;102225.06;5016227;28;20497;-61
2022/07/18 06:17:58;;;;;;;6.97;5.10;;;;;;;17.70;72.39;102218.50;5022782;28;20040;-61
2022/07/18 06:20:24;;;;;;;7.97;4.70;;;;;;;17.85;71.64;102207.50;5019970;28;20044;-60
2022/07/18 06:22:49;;;;;;;6.78;4.80;;;;;;;17.99;70.15;102199.94;5026421;28;20116;-61
2022/07/18 06:25:14;;;;;;;8.32;4.43;;;;;;;18.12;69.32;102201.13;5024278;28;20157;-61
2022/07/18 06:27:40;;;;;;;7.38;4.45;;;;;;;18.28;69.22;102196.22;5013335;28;20022;-61
2022/07/18 06:30:08;;;;;;;6.80;3.70;;;;;;;18.44;69.33;102197.44;5019745;28;20037;-61
2022/07/18 06:32:33;;;;;;;6.30;4.25;;;;;;;18.59;68.86;102202.13;5010174;28;20030;-61
2022/07/18 06:34:58;;;;;;;6.03;4.38;;;;;;;18.76;68.84;102203.31;5016251;28;20098;-60
2022/07/18 06:37:24;;;;;;;6.78;4.18;;;;;;;18.90;67.91;102198.31;5022229;28;20017;-60
2022/07/18 06:39:49;;;;;;;6.93;4.20;;;;;;;19.06;67.61;102202.13;5015549;28;20026;-61
2022/07/18 06:42:14;;;;;;;6.95;4.30;;;;;;;19.20;66.57;102190.16;5017341;28;20052;-60
2022/07/18 06:44:40;;;;;;;5.50;3.97;;;;;;;19.36;66.72;102190.41;5023720;28;20029;-60
2022/07/18 06:47:05;;;;;;;5.45;4.50;;;;;;;19.52;65.99;102185.38;5023742;28;20091;-60
2022/07/18 06:49:30;;;;;;;10.82;4.35;;;;;;;19.68;65.84;102187.41;5018020;28;20113;-61
2022/07/18 06:51:56;;;;;;;4.35;3.85;;;;;;;19.87;65.54;102182.44;5026658;28;20285;-61
2022/07/18 06:54:26;;;;;;;8.70;4.53;;;;;;;19.99;62.92;102181.69;5018207;28;20028;-61
2022/07/18 06:56:51;;;;;;;7.57;4.15;;;;;;;20.18;63.90;102186.38;5022805;28;20104;-61
2022/07/18 06:59:16;;;;;;;7.40;4.00;;;;;;;20.35;63.91;102183.94;5019719;28;20109;-61
2022/07/18 07:01:42;;;;;;;6.70;4.45;;;;;;;20.44;61.43;102184.06;5016659;28;20057;-61
2022/07/18 07:04:07;;;;;;;7.88;5.15;;;;;;;20.57;61.55;102185.09;5014320;28;20028;-61
2022/07/18 07:06:32;;;;;;;6.32;4.53;;;;;;;20.69;61.35;102184.34;5026481;28;20021;-59
2022/07/18 07:08:58;;;;;;;7.43;4.22;;;;;;;20.79;60.99;102185.31;5025161;28;20021;-60
2022/07/18 07:11:23;;;;;;;11.02;4.25;;;;;;;20.94;60.87;102183.72;5023112;28;20021;-60
2022/07/18 07:13:48;;;;;;;4.35;3.60;;;;;;;21.10;60.68;102180.38;5019580;28;20047;-61
2022/07/18 07:16:13;;;;;;;6.88;3.92;;;;;;;21.29;59.91;102185.81;5011108;28;20087;-60
2022/07/18 07:18:40;;;;;;;8.02;3.92;;;;;;;21.42;58.20;102185.91;5024209;28;20535;-61
2022/07/18 07:21:06;;;;;;;7.38;4.15;;;;;;;21.56;57.61;102180.75;5026462;28;20464;-59
2022/07/18 07:23:31;;;;;;;8.35;3.95;;;;;;;21.75;55.90;102187.00;5021129;28;20105;-61
2022/07/18 07:25:57;;;;;;;6.22;2.83;;;;;;;21.98;56.46;102186.31;5021782;28;20104;-60
2022/07/18 07:28:22;;;;;;;5.97;3.28;;;;;;;22.14;55.35;102186.38;5020917;28;20021;-61
2022/07/18 07:30:47;;;;;;;10.48;3.53;;;;;;;22.26;55.42;102189.09;5023361;28;20101;-60
2022/07/18 07:33:13;;;;;;;5.18;2.78;;;;;;;22.44;55.80;102182.09;5025273;28;20189;-60
2022/07/18 07:35:38;;;;;;;6.63;2.72;;;;;;;22.63;55.59;102185.69;5022555;28;20953;-61
2022/07/18 07:38:03;;;;;;;4.28;2.50;;;;;;;22.82;53.31;102190.16;5021654;28;20017;-61
2022/07/18 07:40:29;;;;;;;8.65;2.70;;;;;;;23.01;52.09;102189.28;5023082;28;20184;-60
2022/07/18 07:43:09;;;;;;;5.63;3.05;;;;;;;23.18;50.78;102188.44;5020814;28;20389;-61
2022/07/18 07:45:34;;;;;;;8.10;2.80;;;;;;;23.28;49.20;102184.00;5013273;28;20161;-60
2022/07/18 07:48:00;;;;;;;5.70;2.88;;;;;;;23.33;49.08;102174.31;5013734;28;20045;-59
2022/07/18 07:50:25;;;;;;;4.20;1.83;;;;;;;23.39;49.17;102170.78;5016001;28;20025;-60
2022/07/18 07:52:52;;;;;;;4.55;1.80;;;;;;;23.49;50.22;102164.63;5012011;28;20072;-60
2022/07/18 07:55:17;;;;;;;4.97;1.88;;;;;;;23.64;48.03;102162.84;5021913;28;20814;-60
2022/07/18 07:57:42;;;;;;;3.13;1.70;;;;;;;23.85;46.54;102159.25;5022158;28;20033;-61
2022/07/18 08:00:09;;;;;;;5.35;1.55;;;;;;;24.04;41.90;102160.97;5018129;28;20396;-60
2022/07/18 08:02:35;;;;;;;4.25;1.50;;;;;;;24.16;40.70;102155.63;5010632;28;20053;-60
2022/07/18 08:05:01;;;;;;;1.63;1.30;;;;;;;24.46;41.72;102144.94;5016781;28;20496;-61
2022/07/18 08:07:26;;;;;;;2.17;1.38;;;;;;;24.75;42.04;102150.91;5024125;28;20017;-60
2022/07/18 08:09:52;;;;;;;3.05;1.30;;;;;;;25.01;41.61;102147.19;5019940;28;20033;-61
2022/07/18 08:12:17;;;;;;;2.97;1.38;;;;;;;25.18;40.07;102134.66;5026945;28;20025;-60
2022/07/18 08:14:42;;;;;;;4.82;1.58;;;;;;;25.27;38.65;102136.38;5025679;28;20060;-60
2022/07/18 08:17:08;;;;;;;2.75;1.45;;;;;;;25.55;38.55;102137.88;5026477;28;20013;-60
2022/07/18 08:19:33;;;;;;;1.95;1.20;;;;;;;25.60;36.87;102130.72;5020115;28;20042;-60
2022/07/18 08:21:59;;;;;;;3.13;1.52;;;;;;;25.65;35.95;102130.72;5010556;28;20430;-61
2022/07/18 08:24:24;;;;;;;3.90;1.10;;;;;;;25.86;36.65;102126.94;5026663;28;20041;-60
2022/07/18 08:26:49;;;;;;;2.92;1.05;;;;;;;26.00;36.95;102128.53;5029602;28;20039;-60
2022/07/18 08:29:15;;;;;;;2.70;1.42;;;;;;;26.25;37.17;102131.72;5029588;28;20033;-59
2022/07/18 08:31:40;;;;;;;4.75;1.75;;;;;;;26.45;36.21;102125.28;5028743;28;20025;-60
2022/07/18 08:34:05;;;;;;;2.45;1.42;;;;;;;26.69;35.91;102132.91;5028130;28;20284;-61
2022/07/18 08:36:31;;;;;;;4.43;1.38;;;;;;;26.88;35.88;102137.94;5012559;28;20026;-60
2022/07/18 08:38:56;;;;;;;2.03;1.33;;;;;;;27.04;37.54;102139.44;5010325;28;20018;-59
2022/07/18 08:41:24;;;;;;;4.18;1.23;;;;;;;27.24;37.23;102145.31;5010256;28;20050;-61
2022/07/18 08:43:50;;;;;;;2.08;1.20;;;;;;;27.41;37.36;102145.91;5010448;28;20514;-61
2022/07/18 08:46:21;;;;;;;2.15;1.63;;;;;;;27.57;36.98;102153.56;5009587;28;20034;-61
2022/07/18 08:48:47;;;;;;;2.53;1.23;;;;;;;27.51;34.61;102148.34;5016134;28;20024;-61
2022/07/18 08:51:13;;;;;;;1.58;1.27;;;;;;;27.66;36.19;102144.53;5020593;28;20148;-61
2022/07/18 08:53:38;;;;;;;4.15;1.17;;;;;;;27.82;36.14;102147.78;5010997;28;20065;-61
2022/07/18 08:56:04;;;;;;;4.63;1.58;;;;;;;27.94;36.33;102138.66;5013643;28;20025;-60
2022/07/18 08:58:30;;;;;;;2.75;1.70;;;;;;;28.03;35.92;102141.13;5016078;28;20025;-59
2022/07/18 09:00:58;;;;;;;2.38;1.50;;;;;;;28.21;36.15;102140.78;5017667;28;20037;-61
2022/07/18 09:03:23;;;;;;;2.72;1.20;;;;;;;28.36;36.20;102143.13;5010944;28;20061;-60
2022/07/18 09:06:06;;;;;;;4.72;1.60;;;;;;;28.15;33.85;102139.97;5010247;28;20109;-61
2022/07/18 09:08:32;;;;;;;3.22;1.10;;;;;;;28.32;34.41;102143.19;5019427;28;20041;-59
2022/07/18 09:10:59;;;;;;;5.72;1.50;;;;;;;28.44;35.15;102142.91;5008951;28;20149;-61
2022/07/18 09:13:34;;;;;;;5.03;1.50;;;;;;;28.64;36.16;102138.91;5009569;28;20014;-60
2022/07/18 09:16:08;;;;;;;2.58;1.30;;;;;;;28.82;36.86;102139.41;5013123;28;20092;-60
2022/07/18 09:18:40;;;;;;;5.03;1.50;;;;;;;28.94;36.32;102132.88;5010916;28;20053;-61
2022/07/18 09:21:09;;;;;;;2.95;1.20;;;;;;;29.11;36.34;102129.78;5016478;28;20028;-60
2022/07/18 09:23:38;;;;;;;2.70;1.05;;;;;;;29.31;35.47;102133.69;5028632;28;20052;-60
2022/07/18 09:26:04;;;;;;;3.60;1.60;;;;;;;29.34;33.20;102130.97;5015410;28;20200;-59
2022/07/18 09:28:51;;;;;;;4.28;1.20;;;;;;;29.45;34.15;102134.19;5027261;28;20147;-60
2022/07/18 09:31:19;;;;;;;3.25;1.55;;;;;;;29.56;34.56;102135.69;5015660;28;20055;-60
2022/07/18 09:33:55;;;;;;;2.20;1.45;;;;;;;29.66;35.36;102137.22;5026509;28;20481;-60
2022/07/18 09:36:21;;;;;;;4.40;1.33;;;;;;;29.77;35.03;102136.03;5015219;28;20021;-60
2022/07/18 09:38:46;;;;;;;3.22;1.40;;;;;;;29.80;33.97;102138.59;5027204;28;20033;-61
2022/07/18 09:41:11;;;;;;;3.08;1.45;;;;;;;29.81;33.16;102140.38;5026661;28;20052;-60
2022/07/18 09:43:38;;;;;;;5.60;1.63;;;;;;;29.80;33.29;102143.94;5026879;28;20029;-61
2022/07/18 09:46:05;;;;;;;5.55;2.05;;;;;;;29.59;32.52;102135.63;5027380;28;20389;-60
2022/07/18 09:48:31;;;;;;;2.75;1.40;;;;;;;29.72;33.84;102142.38;5026738;28;20048;-60
2022/07/18 09:51:03;;;;;;;2.90;1.50;;;;;;;29.90;34.31;102133.88;5019199;28;20486;-60
2022/07/18 09:53:42;;;;;;;2.75;1.20;;;;;;;30.07;34.32;102131.56;5028514;28;20441;-61
2022/07/18 09:56:13;;;;;;;2.37;1.30;;;;;;;30.19;33.04;102134.75;5028172;28;20026;-60
2022/07/18 09:58:41;;;;;;;4.30;1.40;;;;;;;30.33;34.94;102134.38;5028133;28;20143;-60
2022/07/18 10:01:08;;;;;;;4.25;1.58;;;;;;;30.38;34.14;102134.22;5027697;28;20033;-60
2022/07/18 10:03:34;;;;;;;4.43;1.20;;;;;;;30.32;32.74;102130.84;5018254;28;20433;-60
2022/07/18 10:06:01;;;;;;;4.20;1.40;;;;;;;30.45;33.84;102127.75;5014903;28;20061;-61
2022/07/18 10:08:29;;;;;;;3.20;1.60;;;;;;;30.61;35.80;102128.13;5027993;28;20022;-62
2022/07/18 10:10:56;;;;;;;3.88;1.80;;;;;;;30.60;33.10;102133.53;5028291;28;20032;-62
2022/07/18 10:13:23;;;;;;;2.97;1.55;;;;;;;30.68;32.61;102127.00;5023675;28;20021;-60
2022/07/18 10:15:50;;;;;;;2.67;1.50;;;;;;;30.74;31.81;102131.28;5019369;28;20032;-61
2022/07/18 10:18:18;;;;;;;1.95;1.20;;;;;;;30.81;34.29;102131.94;5016640;28;20030;-60
2022/07/18 10:20:58;;;;;;;2.88;1.23;;;;;;;30.94;35.60;102127.09;5027315;28;20020;-61
2022/07/18 10:23:32;;;;;;;4.03;1.42;;;;;;;31.00;31.60;102120.63;5028040;28;20026;-61
2022/07/18 10:26:25;;;;;;;2.63;1.48;;;;;;;31.07;32.23;102123.97;5020907;28;20044;-61
2022/07/18 10:28:56;;;;;;;3.63;1.48;;;;;;;31.21;32.17;102128.84;5027539;28;20038;-61
2022/07/18 10:31:36;;;;;;;5.30;1.35;;;;;;;31.23;30.51;102121.63;5027589;28;20025;-61
2022/07/18 10:34:04;;;;;;;4.57;1.42;;;;;;;30.63;30.21;102126.28;5027485;28;20030;-61
2022/07/18 10:36:31;;;;;;;3.22;1.25;;;;;;;30.87;32.68;102121.03;5024672;28;20354;-59
2022/07/18 10:39:23;;;;;;;2.75;1.17;;;;;;;31.07;33.82;102122.16;5026852;28;20802;-61
2022/07/18 10:41:51;;;;;;;6.95;1.65;;;;;;;31.19;32.02;102109.28;5027471;28;20139;-61
2022/07/18 10:44:35;;;;;;;3.17;1.48;;;;;;;31.13;31.25;102115.72;5027285;28;20689;-61
2022/07/18 10:47:09;;;;;;;4.40;1.40;;;;;;;31.12;29.78;102112.16;5027356;28;20075;-61
2022/07/18 10:49:52;;;;;;;3.60;1.50;;;;;;;30.69;29.29;102117.16;5027014;28;20107;-61
2022/07/18 10:52:29;;;;;;;5.57;1.15;;;;;;;30.97;31.47;102105.56;5027516;28;20270;-61
2022/07/18 10:57:33;;;;;;;3.80;1.45;;;;;;;31.35;30.51;102110.47;5027143;28;20080;-61
2022/07/18 11:00:15;;;;;;;2.20;1.60;;;;;;;31.51;31.57;102109.94;5008092;28;20439;-60
2022/07/18 11:02:41;;;;;;;2.60;1.17;;;;;;;31.63;29.88;102111.25;5020554;28;20034;-61
2022/07/18 11:05:25;;;;;;;2.38;1.30;;;;;;;31.76;30.06;102103.63;5021111;28;20029;-61
2022/07/18 11:08:12;;;;;;;4.00;1.52;;;;;;;31.69;28.53;102100.31;5013464;28;20037;-61
2022/07/18 11:10:40;;;;;;;1.60;1.23;;;;;;;31.74;29.33;102103.69;5010447;28;20068;-61
2022/07/18 11:13:35;;;;;;;3.67;1.50;;;;;;;31.66;29.28;102103.13;5022987;28;20037;-62
2022/07/18 11:16:19;;;;;;;3.72;1.70;;;;;;;31.79;29.16;102092.78;5022355;28;20022;-61
2022/07/18 11:18:45;;;;;;;4.43;1.48;;;;;;;31.82;28.84;102102.53;5026235;28;20045;-61
2022/07/18 11:21:27;;;;;;;3.17;1.20;;;;;;;31.99;30.70;102088.50;5024574;28;20275;-61
2022/07/18 11:23:58;;;;;;;2.90;1.25;;;;;;;32.02;29.15;102088.38;5024427;28;21083;-61
2022/07/18 11:26:24;;;;;;;2.30;1.55;;;;;;;32.16;30.08;102095.88;5024912;28;20033;-61